Latest Weather Observations for Hamilton

IDV60801

Issued at 5:05 am EST Thursday 18 September 2014 (issued every 30 minutes, with the page automatically refreshed every 10 minutes)

About weather observations | Map of weather stations | Latest weather observations for VIC | Other Formats
Station Details ID: 090173 Name: HAMILTON AIRPORT Lat: -37.65 Lon: 142.06 Height: 241.1 m
Data from the previous 72 hours. | See also: Recent months at Hamilton
Date/Time
EST
Temp
°C
App
Temp
°C
Dew
Point
Rel
Hum
%
Delta-T
°C
Wind Press
QNH
hPa
Press
MSL
hPa
Rain
since 9 am
mm
Dir
 
Spd
km/h
Gust
km/h
Spd
kts
Gust
kts
18/05:03am 6.2 2.8 6.1 99 0.0 WSW 13 17 7 9 1022.4 1022.6 0.2
18/05:00am 6.2 2.8 6.1 99 0.0 WSW 13 17 7 9 1022.4 1022.6 0.2
18/04:58am 6.2 2.5 6.1 99 0.0 WSW 15 19 8 10 1022.4 1022.6 0.2
18/04:38am 6.2 2.5 6.1 99 0.0 WSW 15 19 8 10 1022.4 1022.6 0.2
18/04:30am 6.1 2.7 6.0 99 0.0 WSW 13 17 7 9 1022.3 1022.5 0.0
18/04:00am 6.1 1.9 5.8 98 0.1 WSW 17 22 9 12 1022.0 1022.2 0.0
18/03:30am 6.4 2.5 5.5 94 0.4 WSW 15 19 8 10 1022.0 1022.2 0.0
18/03:00am 6.3 2.5 5.6 95 0.3 WSW 15 17 8 9 1021.9 1022.1 0.0
18/02:30am 5.7 2.9 5.3 97 0.2 W 9 13 5 7 1021.8 1022.0 0.0
18/02:00am 4.5 1.8 3.8 95 0.3 WNW 7 11 4 6 1021.9 1022.1 0.0
18/01:30am 5.3 2.9 4.3 93 0.4 WSW 6 7 3 4 1021.8 1022.0 0.0
18/01:00am 5.7 2.8 4.5 92 0.5 W 9 13 5 7 1022.0 1022.2 0.0
18/12:30am 5.7 2.8 4.7 93 0.4 W 9 13 5 7 1022.0 1022.2 0.0
18/12:00am 5.6 2.7 4.4 92 0.5 W 9 11 5 6 1022.2 1022.4 0.0
 
Date/Time
EST
Temp
°C
App
Temp
°C
Dew
Point
Rel
Hum
%
Delta-T
°C
Wind Press
QNH
hPa
Press
MSL
hPa
Rain
since 9 am
mm
Dir
 
Spd
km/h
Gust
km/h
Spd
kts
Gust
kts
17/11:30pm 6.1 3.3 5.1 93 0.4 W 9 13 5 7 1022.1 1022.3 0.0
17/11:00pm 6.0 2.4 5.1 94 0.4 W 13 15 7 8 1022.0 1022.2 0.0
17/10:30pm 6.6 3.1 5.4 92 0.5 WSW 13 19 7 10 1022.0 1022.2 0.0
17/10:00pm 5.9 3.0 4.7 92 0.5 WSW 9 17 5 9 1022.0 1022.2 0.0
17/09:30pm 5.1 2.0 3.6 90 0.6 WSW 9 11 5 6 1021.9 1022.1 0.0
17/09:00pm 5.9 2.1 4.1 88 0.8 W 13 17 7 9 1021.6 1021.8 0.0
17/08:30pm 5.4 2.4 3.9 90 0.6 W 9 13 5 7 1021.4 1021.6 0.0
17/08:00pm 6.0 3.5 4.5 90 0.7 WSW 7 9 4 5 1021.1 1021.3 0.0
17/07:30pm 6.5 3.6 4.8 89 0.8 WSW 9 11 5 6 1020.9 1021.1 0.0
17/07:00pm 7.3 3.7 4.9 85 1.1 WSW 13 17 7 9 1020.5 1020.7 0.0
17/06:30pm 7.8 2.8 4.6 80 1.4 WSW 20 28 11 15 1020.3 1020.5 0.0
17/06:00pm 8.2 2.4 4.4 77 1.7 SW 24 30 13 16 1020.0 1020.2 0.0
17/05:30pm 8.6 3.0 5.2 79 1.5 SSW 24 32 13 17 1019.6 1019.7 0.0
17/05:00pm 9.3 2.9 5.3 76 1.8 SSW 28 37 15 20 1019.0 1019.2 0.0
17/04:30pm 11.5 4.2 4.7 63 3.1 SW 32 46 17 25 1018.5 1018.7 0.0
17/04:00pm 10.4 4.7 6.7 78 1.8 SW 26 33 14 18 1018.3 1018.5 0.0
17/03:30pm 10.7 5.4 8.3 85 1.2 SW 26 33 14 18 1018.1 1018.3 0.0
17/03:18pm 9.5 2.6 6.4 81 1.5 SW 32 50 17 27 1018.2 1018.4 0.0
17/03:00pm 10.4 4.5 7.5 82 1.4 WSW 28 37 15 20 1018.0 1018.2 0.0
17/02:30pm 11.2 4.9 7.3 77 1.9 SW 30 37 16 20 1017.7 1017.9 0.0
17/02:01pm 9.2 1.4 6.6 84 1.2 SW 37 56 20 30 1017.8 1018.0 0.0
17/02:00pm 9.1 0.9 6.5 84 1.2 SW 39 56 21 30 1017.8 1018.0 0.0
17/01:30pm 9.6 2.1 6.1 79 1.6 WSW 35 50 19 27 1017.5 1017.7 0.0
17/01:00pm 10.9 3.4 6.3 73 2.2 WSW 35 48 19 26 1017.5 1017.7 0.0
17/12:30pm 11.8 5.2 5.9 67 2.8 WSW 30 43 16 23 1017.4 1017.6 0.0
17/12:00pm 12.3 5.2 5.7 64 3.1 WSW 32 39 17 21 1017.5 1017.7 0.0
17/11:48am 10.9 3.5 4.1 63 3.1 SW 32 50 17 27 1017.5 1017.7 0.0
17/11:30am 11.8 4.3 4.5 61 3.4 SW 33 44 18 24 1017.4 1017.6 0.0
17/11:00am 11.3 3.4 6.2 71 2.4 SW 37 46 20 25 1017.3 1017.5 0.0
17/10:43am 10.9 4.8 8.1 83 1.4 SW 30 48 16 26 1017.2 1017.4 0.0
17/10:30am 9.2 2.7 8.0 92 0.6 SW 32 44 17 24 1017.3 1017.5 0.0
17/10:00am 10.7 4.9 7.9 83 1.4 WSW 28 39 15 21 1016.8 1017.0 0.0
17/09:30am 10.2 4.5 8.5 89 0.8 WSW 28 35 15 19 1016.6 1016.8 0.0
17/09:00am 9.3 4.5 8.8 97 0.2 W 24 32 13 17 1016.4 1016.5 0.4
17/08:30am 8.5 4.3 8.4 99 0.0 W 20 24 11 13 1016.2 1016.3 -
17/08:00am 8.1 4.4 8.0 99 0.0 W 17 24 9 13 1015.8 1015.9 -
17/07:30am 6.9 3.3 6.8 99 0.0 WNW 15 19 8 10 1015.5 1015.6 -
17/07:00am 6.2 2.8 6.1 99 0.0 WNW 13 15 7 8 1015.1 1015.3 -
17/06:30am 5.7 2.2 5.6 99 0.0 WNW 13 15 7 8 1014.9 1015.1 -
17/06:00am 6.1 2.7 6.0 99 0.0 WNW 13 19 7 10 1014.9 1015.1 -
17/05:30am 6.1 2.7 6.0 99 0.0 W 13 17 7 9 1014.7 1014.9 -
17/05:00am 6.3 3.0 6.2 99 0.0 W 13 19 7 10 1014.6 1014.8 -
17/04:30am 6.2 3.2 6.1 99 0.0 W 11 15 6 8 1014.5 1014.7 -
17/04:00am 6.4 3.1 6.3 99 0.0 WNW 13 17 7 9 1014.2 1014.4 -
17/03:30am 6.5 3.6 6.4 99 0.0 W 11 15 6 8 1014.1 1014.3 -
17/03:00am 7.2 3.7 7.1 99 0.0 W 15 19 8 10 1014.2 1014.4 0.2
17/02:30am 7.4 3.5 7.3 99 0.0 W 17 20 9 11 1014.3 1014.5 -
17/02:03am 7.6 3.8 7.5 99 0.0 W 17 24 9 13 1014.3 1014.5 -
17/02:00am 7.6 3.8 7.5 99 0.0 W 17 24 9 13 1014.4 1014.6 -
17/01:30am 8.4 4.8 8.3 99 0.0 W 17 24 9 13 1014.5 1014.7 -
17/01:00am 8.6 5.0 8.5 99 0.0 W 17 30 9 16 1014.5 1014.7 -
17/12:30am 8.7 5.2 8.6 99 0.0 W 17 22 9 12 1014.5 1014.7 -
17/12:00am 8.7 4.8 8.6 99 0.0 W 19 28 10 15 1014.5 1014.7 -
 
Date/Time
EST
Temp
°C
App
Temp
°C
Dew
Point
Rel
Hum
%
Delta-T
°C
Wind Press
QNH
hPa
Press
MSL
hPa
Rain
since 9 am
mm
Dir
 
Spd
km/h
Gust
km/h
Spd
kts
Gust
kts
16/11:50pm 8.8 4.9 8.7 99 0.0 WNW 19 28 10 15 1014.5 1014.7 -
16/11:41pm 8.8 5.7 8.7 99 0.0 WNW 15 22 8 12 1014.4 1014.6 -
16/11:39pm 8.7 5.5 8.6 99 0.0 WNW 15 20 8 11 1014.4 1014.6 -
16/11:30pm 8.7 5.2 8.6 99 0.0 WNW 17 20 9 11 1014.5 1014.7 -
16/11:00pm 8.1 5.1 7.8 98 0.1 NW 13 17 7 9 1014.4 1014.6 -
16/10:30pm 8.2 5.6 7.8 97 0.2 NNW 11 13 6 7 1014.5 1014.7 -
16/10:00pm 8.2 5.6 7.8 97 0.2 NW 11 13 6 7 1014.6 1014.8 -
16/09:30pm 8.5 6.3 7.7 95 0.4 NW 9 11 5 6 1014.6 1014.8 -
16/09:00pm 8.2 6.1 6.8 91 0.7 W 7 9 4 5 1014.6 1014.8 0.0
16/08:30pm 8.2 5.8 6.8 91 0.7 W 9 9 5 5 1014.6 1014.8 -
16/08:00pm 8.2 6.2 7.1 93 0.5 W 7 7 4 4 1014.6 1014.8 -
16/07:30pm 8.2 5.4 7.1 93 0.5 SW 11 13 6 7 1014.3 1014.5 -
16/07:00pm 8.7 6.0 7.3 91 0.7 WSW 11 11 6 6 1014.0 1014.2 -
16/06:30pm 10.0 7.9 8.1 88 0.9 WSW 9 11 5 6 1013.8 1014.0 -
16/06:00pm 11.7 8.6 8.7 82 1.5 WSW 15 20 8 11 1013.6 1013.8 -
16/05:30pm 11.7 9.6 9.6 87 1.1 WSW 11 17 6 9 1013.5 1013.7 -
16/05:00pm 11.7 8.7 9.4 86 1.2 SW 15 19 8 10 1013.4 1013.6 -
16/04:30pm 11.8 8.4 10.7 93 0.6 SW 19 26 10 14 1013.3 1013.5 -
16/04:00pm 12.0 6.6 9.6 85 1.2 WSW 28 35 15 19 1013.2 1013.4 -
16/03:30pm 12.6 6.4 9.2 80 1.7 W 32 46 17 25 1013.1 1013.3 -
16/03:26pm 12.8 7.3 9.3 79 1.8 W 28 46 15 25 1013.0 1013.2 -
16/03:00pm 14.5 10.0 8.5 67 3.1 SSW 22 28 12 15 1012.7 1012.8 -
16/02:30pm 15.4 11.1 9.3 67 3.2 WSW 22 30 12 16 1012.8 1012.9 0.0
16/02:00pm 13.4 9.1 9.5 77 2.0 WSW 22 32 12 17 1013.1 1013.3 0.0
16/01:30pm 13.5 8.3 9.0 74 2.3 SW 26 35 14 19 1013.1 1013.3 0.0
16/01:00pm 13.9 8.8 9.1 73 2.5 SW 26 33 14 18 1013.2 1013.4 0.0
16/12:30pm 14.0 8.7 8.6 70 2.8 SW 26 35 14 19 1013.2 1013.4 0.0
16/12:00pm 14.1 9.3 8.7 70 2.8 SW 24 41 13 22 1013.6 1013.8 0.0
16/11:30am 13.1 7.2 7.5 69 2.8 SW 28 35 15 19 1013.8 1014.0 0.0
16/11:00am 13.3 8.3 9.4 77 2.0 SW 26 33 14 18 1013.8 1014.0 0.0
16/10:30am 11.6 5.6 8.5 81 1.6 SSW 30 35 16 19 1014.0 1014.2 0.0
16/10:00am 12.4 7.8 9.6 83 1.4 SW 24 30 13 16 1013.9 1014.1 0.0
16/09:30am 11.7 6.7 9.6 87 1.1 SW 26 35 14 19 1014.0 1014.2 0.0
16/09:00am 11.2 6.9 9.3 88 1.0 SW 22 33 12 18 1013.8 1014.0 0.0
16/08:30am 10.6 5.7 9.8 95 0.4 SW 26 33 14 18 1013.9 1014.1 0.0
16/08:00am 10.2 6.1 10.0 99 0.1 SW 22 33 12 18 1013.7 1013.9 0.0
16/07:30am 9.6 4.2 9.5 99 0.1 SW 28 35 15 19 1013.5 1013.7 0.0
16/07:13am 9.2 4.1 9.1 99 0.0 SW 26 33 14 18 1013.2 1013.4 0.0
16/07:00am 9.0 3.4 8.9 99 0.0 SW 28 37 15 20 1013.0 1013.2 0.0
16/06:30am 9.1 3.6 9.0 99 0.0 SW 28 35 15 19 1012.6 1012.7 0.0
16/06:00am 9.4 3.6 9.3 99 0.1 SW 30 37 16 20 1012.3 1012.4 0.0
16/05:30am 9.6 3.4 9.5 99 0.1 SW 32 43 17 23 1012.0 1012.1 0.0
16/05:00am 9.9 5.0 9.8 99 0.1 SSW 26 33 14 18 1011.5 1011.6 0.0
16/04:30am 9.9 6.3 9.8 99 0.1 SW 19 28 10 15 1011.4 1011.5 0.0
16/04:00am 9.9 5.7 9.8 99 0.1 SSW 22 30 12 16 1011.1 1011.2 0.0
16/03:30am 10.0 5.5 9.9 99 0.1 SSW 24 33 13 18 1011.1 1011.2 0.0
16/03:00am 10.1 5.2 9.9 99 0.1 SW 26 33 14 18 1011.1 1011.2 0.0
16/02:30am 10.3 5.8 10.1 99 0.1 SSW 24 35 13 19 1011.1 1011.2 0.0
16/02:00am 10.4 6.3 10.2 99 0.1 SSW 22 28 12 15 1011.1 1011.2 0.0
16/01:48am 10.4 6.3 10.2 99 0.1 SSW 22 28 12 15 1011.2 1011.3 0.0
16/01:30am 10.4 5.9 10.2 99 0.1 SSW 24 33 13 18 1011.2 1011.3 0.0
16/01:17am 10.5 6.1 10.3 99 0.1 SSW 24 33 13 18 1011.2 1011.3 0.0
16/01:00am 10.7 6.3 10.5 99 0.1 S 24 35 13 19 1011.2 1011.3 0.0
16/12:30am 10.6 6.2 10.4 99 0.1 SSW 24 32 13 17 1011.1 1011.2 0.0
16/12:00am 10.4 6.7 10.2 99 0.1 SSW 20 28 11 15 1011.0 1011.1 0.0
 
Date/Time
EST
Temp
°C
App
Temp
°C
Dew
Point
Rel
Hum
%
Delta-T
°C
Wind Press
QNH
hPa
Press
MSL
hPa
Rain
since 9 am
mm
Dir
 
Spd
km/h
Gust
km/h
Spd
kts
Gust
kts
15/11:30pm 10.3 6.2 10.1 99 0.1 S 22 30 12 16 1011.0 1011.1 0.0
15/11:19pm 10.3 6.6 10.1 99 0.1 S 20 28 11 15 1011.1 1011.2 0.0
15/11:00pm 10.4 6.7 10.2 99 0.1 S 20 26 11 14 1011.0 1011.1 0.0
15/10:30pm 10.7 7.6 10.4 98 0.2 SSW 17 22 9 12 1011.2 1011.3 0.0
15/10:08pm 10.8 7.8 10.5 98 0.2 S 17 20 9 11 1011.0 1011.1 0.0
15/10:00pm 10.8 7.4 10.5 98 0.2 S 19 24 10 13 1011.0 1011.1 0.0
15/09:30pm 10.8 7.2 10.5 98 0.2 S 20 24 11 13 1010.5 1010.7 0.0
15/09:00pm 11.0 7.4 10.5 97 0.3 SSE 20 28 11 15 1010.7 1010.9 0.0
15/08:41pm 11.3 7.4 10.7 96 0.3 S 22 32 12 17 1010.5 1010.7 0.0
15/08:30pm 11.5 7.2 10.7 95 0.4 S 24 30 13 16 1010.5 1010.7 0.0
15/08:00pm 11.8 7.2 11.0 95 0.4 SSE 26 33 14 18 1010.4 1010.6 0.0
15/07:30pm 12.0 7.5 11.4 96 0.3 SSE 26 33 14 18 1010.1 1010.3 0.0
15/07:00pm 12.1 7.6 11.5 96 0.3 SSE 26 33 14 18 1009.6 1009.8 0.0
15/06:30pm 12.4 8.0 11.8 96 0.3 SSE 26 35 14 19 1009.2 1009.3 0.0
15/06:00pm 12.9 9.0 12.1 95 0.4 SSE 24 33 13 18 1009.1 1009.2 0.0
15/05:30pm 13.6 9.4 12.5 93 0.6 SSE 26 37 14 20 1008.7 1008.8 0.0
15/05:00pm 14.5 10.5 12.9 90 0.9 SE 26 35 14 19 1008.4 1008.5 0.0
15/04:30pm 14.6 10.6 13.1 91 0.8 SE 26 35 14 19 1008.2 1008.3 0.0
15/04:00pm 15.1 11.2 13.3 89 1.0 SE 26 33 14 18 1008.1 1008.2 0.0
15/03:30pm 15.7 12.3 13.7 88 1.1 SE 24 32 13 17 1008.1 1008.2 0.0
15/03:00pm 16.3 13.0 14.1 87 1.3 SE 24 33 13 18 1008.0 1008.1 0.0
15/02:30pm 17.5 14.7 13.2 76 2.4 E 20 30 11 16 1008.1 1008.2 0.0
15/02:00pm 17.0 13.4 11.9 72 2.8 E 22 30 12 16 1008.1 1008.2 0.0
15/01:30pm 17.2 13.7 13.5 79 2.1 ESE 24 33 13 18 1008.3 1008.4 0.0
15/01:00pm 17.1 13.2 13.2 78 2.2 ESE 26 35 14 19 1008.7 1008.8 0.0
15/12:30pm 16.2 11.2 12.2 77 2.2 E 30 37 16 20 1008.9 1009.0 0.0
15/12:00pm 15.8 10.3 12.5 81 1.8 E 33 43 18 23 1009.2 1009.3 0.0
15/11:30am 14.1 8.5 11.6 85 1.4 ESE 32 39 17 21 1009.9 1010.1 0.0
15/11:00am 13.7 8.2 11.9 89 1.0 ESE 32 39 17 21 1010.4 1010.6 0.0
15/10:30am 12.4 7.1 11.1 92 0.7 E 30 37 16 20 1011.1 1011.2 0.0
15/10:00am 11.1 6.4 10.5 96 0.3 ESE 26 33 14 18 1011.4 1011.5 0.0
15/09:30am 10.6 5.8 10.4 99 0.1 ESE 26 33 14 18 1011.8 1011.9 0.0
15/09:00am 10.1 5.2 9.9 99 0.1 ESE 26 32 14 17 1012.0 1012.1 1.2
15/08:30am 9.8 5.2 9.7 99 0.1 E 24 30 13 16 1012.5 1012.6 1.2
15/08:00am 9.2 4.8 9.1 99 0.0 ESE 22 28 12 15 1012.9 1013.0 1.2
15/07:30am 8.6 4.1 8.5 99 0.0 ESE 22 28 12 15 1013.0 1013.2 1.2
15/07:00am 8.5 4.0 8.4 99 0.0 ESE 22 28 12 15 1013.2 1013.4 1.2
15/06:30am 8.3 4.1 8.2 99 0.0 ESE 20 26 11 14 1013.8 1014.0 1.2
15/06:00am 8.3 4.1 8.2 99 0.0 ESE 20 24 11 13 1013.7 1013.9 1.2
15/05:30am 8.1 4.0 8.0 99 0.0 ESE 19 22 10 12 1013.7 1013.9 1.2

Other Formats:

Comma delimited format used in spreadsheet applications
http://www.bom.gov.au/fwo/IDV60801/IDV60801.94829.axf

JavaScript Object Notation format (JSON) in row-major order
http://www.bom.gov.au/fwo/IDV60801/IDV60801.94829.json